sensor_id;sensor_type;location;lat;lon;timestamp;temperature;humidity
32139;DHT22;18644;48.700;9.210;2024-01-15T00:02:26;2.10;57.90
32139;DHT22;18644;48.700;9.210;2024-01-15T00:04:54;2.10;57.90
32139;DHT22;18644;48.700;9.210;2024-01-15T00:07:21;2.10;57.80
32139;DHT22;18644;48.700;9.210;2024-01-15T00:09:48;2.20;57.90
32139;DHT22;18644;48.700;9.210;2024-01-15T00:12:14;2.20;57.90
32139;DHT22;18644;48.700;9.210;2024-01-15T00:14:41;2.20;57.80
32139;DHT22;18644;48.700;9.210;2024-01-15T00:17:08;2.20;57.80
32139;DHT22;18644;48.700;9.210;2024-01-15T00:19:35;2.30;57.80
32139;DHT22;18644;48.700;9.210;2024-01-15T00:22:04;2.30;57.70
32139;DHT22;18644;48.700;9.210;2024-01-15T00:24:30;2.30;57.70
32139;DHT22;18644;48.700;9.210;2024-01-15T00:27:00;2.30;57.70
32139;DHT22;18644;48.700;9.210;2024-01-15T00:29:27;2.30;57.60
32139;DHT22;18644;48.700;9.210;2024-01-15T00:31:54;2.30;58.10
32139;DHT22;18644;48.700;9.210;2024-01-15T00:34:21;2.30;57.50
32139;DHT22;18644;48.700;9.210;2024-01-15T00:36:48;2.30;57.40
32139;DHT22;18644;48.700;9.210;2024-01-15T00:39:16;2.30;57.40
32139;DHT22;18644;48.700;9.210;2024-01-15T00:41:43;2.30;57.30
32139;DHT22;18644;48.700;9.210;2024-01-15T00:44:10;2.30;57.20
32139;DHT22;18644;48.700;9.210;2024-01-15T00:46:43;2.30;57.20
32139;DHT22;18644;48.700;9.210;2024-01-15T00:49:11;2.20;57.10
32139;DHT22;18644;48.700;9.210;2024-01-15T00:51:38;2.20;57.10
32139;DHT22;18644;48.700;9.210;2024-01-15T00:54:05;2.20;57.10
32139;DHT22;18644;48.700;9.210;2024-01-15T00:56:33;2.10;57.10
32139;DHT22;18644;48.700;9.210;2024-01-15T00:59:00;2.10;57.10
32139;DHT22;18644;48.700;9.210;2024-01-15T01:01:27;2.10;57.10
32139;DHT22;18644;48.700;9.210;2024-01-15T01:03:55;2.10;57.20
32139;DHT22;18644;48.700;9.210;2024-01-15T01:06:22;2.00;57.20
32139;DHT22;18644;48.700;9.210;2024-01-15T01:08:48;2.00;57.20
32139;DHT22;18644;48.700;9.210;2024-01-15T01:11:16;2.00;57.20
32139;DHT22;18644;48.700;9.210;2024-01-15T01:13:44;2.00;57.20
32139;DHT22;18644;48.700;9.210;2024-01-15T01:16:11;2.00;57.30
32139;DHT22;18644;48.700;9.210;2024-01-15T01:18:38;2.00;57.40
32139;DHT22;18644;48.700;9.210;2024-01-15T01:21:05;2.00;57.50
32139;DHT22;18644;48.700;9.210;2024-01-15T01:23:31;2.00;57.60
32139;DHT22;18644;48.700;9.210;2024-01-15T01:25:58;2.00;57.70
32139;DHT22;18644;48.700;9.210;2024-01-15T01:28:25;2.00;57.70
32139;DHT22;18644;48.700;9.210;2024-01-15T01:30:53;2.00;57.80
32139;DHT22;18644;48.700;9.210;2024-01-15T01:33:20;2.00;57.90
32139;DHT22;18644;48.700;9.210;2024-01-15T01:35:47;2.00;58.00
32139;DHT22;18644;48.700;9.210;2024-01-15T01:38:14;2.00;58.00
32139;DHT22;18644;48.700;9.210;2024-01-15T01:40:41;2.00;58.00
32139;DHT22;18644;48.700;9.210;2024-01-15T01:43:09;2.10;58.00
32139;DHT22;18644;48.700;9.210;2024-01-15T01:45:36;2.10;58.10
32139;DHT22;18644;48.700;9.210;2024-01-15T01:48:05;2.10;58.10
32139;DHT22;18644;48.700;9.210;2024-01-15T01:50:32;2.20;58.10
32139;DHT22;18644;48.700;9.210;2024-01-15T01:53:00;2.20;58.10
32139;DHT22;18644;48.700;9.210;2024-01-15T01:55:29;2.20;58.10
32139;DHT22;18644;48.700;9.210;2024-01-15T01:57:59;2.20;58.10
32139;DHT22;18644;48.700;9.210;2024-01-15T02:00:26;2.20;58.10
32139;DHT22;18644;48.700;9.210;2024-01-15T02:02:54;2.20;58.10
32139;DHT22;18644;48.700;9.210;2024-01-15T02:05:22;2.20;58.10
32139;DHT22;18644;48.700;9.210;2024-01-15T02:07:50;2.30;58.20
32139;DHT22;18644;48.700;9.210;2024-01-15T02:10:17;2.30;58.20
32139;DHT22;18644;48.700;9.210;2024-01-15T02:12:44;2.30;58.20
32139;DHT22;18644;48.700;9.210;2024-01-15T02:15:11;2.30;58.20
32139;DHT22;18644;48.700;9.210;2024-01-15T02:17:56;2.30;58.80
32139;DHT22;18644;48.700;9.210;2024-01-15T02:20:25;2.30;58.20
32139;DHT22;18644;48.700;9.210;2024-01-15T02:22:53;2.30;58.20
32139;DHT22;18644;48.700;9.210;2024-01-15T02:25:21;2.30;58.30
32139;DHT22;18644;48.700;9.210;2024-01-15T02:27:48;2.30;58.30
32139;DHT22;18644;48.700;9.210;2024-01-15T02:30:15;2.30;58.30
32139;DHT22;18644;48.700;9.210;2024-01-15T02:32:43;2.30;58.30
32139;DHT22;18644;48.700;9.210;2024-01-15T02:35:10;2.30;58.30
32139;DHT22;18644;48.700;9.210;2024-01-15T02:37:37;2.30;58.20
32139;DHT22;18644;48.700;9.210;2024-01-15T02:40:05;2.40;58.30
32139;DHT22;18644;48.700;9.210;2024-01-15T02:42:34;2.40;58.20
32139;DHT22;18644;48.700;9.210;2024-01-15T02:45:01;2.30;58.20
32139;DHT22;18644;48.700;9.210;2024-01-15T02:47:31;2.30;58.20
32139;DHT22;18644;48.700;9.210;2024-01-15T02:49:58;2.30;58.10
32139;DHT22;18644;48.700;9.210;2024-01-15T02:52:24;2.30;58.10
32139;DHT22;18644;48.700;9.210;2024-01-15T02:54:51;2.30;58.10
32139;DHT22;18644;48.700;9.210;2024-01-15T02:57:18;2.30;58.10
32139;DHT22;18644;48.700;9.210;2024-01-15T02:59:46;2.30;58.10
32139;DHT22;18644;48.700;9.210;2024-01-15T03:02:13;2.30;58.10
32139;DHT22;18644;48.700;9.210;2024-01-15T03:04:43;2.30;58.00
32139;DHT22;18644;48.700;9.210;2024-01-15T03:07:10;2.20;58.00
32139;DHT22;18644;48.700;9.210;2024-01-15T03:09:37;2.20;58.00
32139;DHT22;18644;48.700;9.210;2024-01-15T03:12:04;2.20;58.00
32139;DHT22;18644;48.700;9.210;2024-01-15T03:14:31;2.20;58.00
32139;DHT22;18644;48.700;9.210;2024-01-15T03:17:00;2.20;58.00
32139;DHT22;18644;48.700;9.210;2024-01-15T03:19:27;2.20;58.00
32139;DHT22;18644;48.700;9.210;2024-01-15T03:21:54;2.20;58.00
32139;DHT22;18644;48.700;9.210;2024-01-15T03:24:21;2.10;58.00
32139;DHT22;18644;48.700;9.210;2024-01-15T03:26:47;2.10;57.90
32139;DHT22;18644;48.700;9.210;2024-01-15T03:29:14;2.10;58.00
32139;DHT22;18644;48.700;9.210;2024-01-15T03:31:41;2.00;58.00
32139;DHT22;18644;48.700;9.210;2024-01-15T03:34:11;2.00;58.10
32139;DHT22;18644;48.700;9.210;2024-01-15T03:36:38;2.00;58.20
32139;DHT22;18644;48.700;9.210;2024-01-15T03:39:06;2.00;58.20
32139;DHT22;18644;48.700;9.210;2024-01-15T03:41:33;2.00;58.30
32139;DHT22;18644;48.700;9.210;2024-01-15T03:44:00;2.00;58.40
32139;DHT22;18644;48.700;9.210;2024-01-15T03:46:26;2.00;58.50
32139;DHT22;18644;48.700;9.210;2024-01-15T03:48:53;2.00;58.60
32139;DHT22;18644;48.700;9.210;2024-01-15T03:51:23;2.00;58.70
32139;DHT22;18644;48.700;9.210;2024-01-15T03:53:51;2.00;58.70
32139;DHT22;18644;48.700;9.210;2024-01-15T03:56:18;2.00;58.80
32139;DHT22;18644;48.700;9.210;2024-01-15T03:58:44;2.00;58.80
32139;DHT22;18644;48.700;9.210;2024-01-15T04:01:11;2.10;58.90
32139;DHT22;18644;48.700;9.210;2024-01-15T04:03:38;2.10;58.90
32139;DHT22;18644;48.700;9.210;2024-01-15T04:06:05;2.10;58.90
32139;DHT22;18644;48.700;9.210;2024-01-15T04:08:34;2.10;59.00
32139;DHT22;18644;48.700;9.210;2024-01-15T04:11:01;2.20;59.00
32139;DHT22;18644;48.700;9.210;2024-01-15T04:13:28;2.20;58.90
32139;DHT22;18644;48.700;9.210;2024-01-15T04:15:54;2.20;58.90
32139;DHT22;18644;48.700;9.210;2024-01-15T04:18:21;2.20;58.90
32139;DHT22;18644;48.700;9.210;2024-01-15T04:20:48;2.30;59.00
32139;DHT22;18644;48.700;9.210;2024-01-15T04:23:18;2.30;59.00
32139;DHT22;18644;48.700;9.210;2024-01-15T04:25:46;2.30;59.00
32139;DHT22;18644;48.700;9.210;2024-01-15T04:28:13;2.40;59.00
32139;DHT22;18644;48.700;9.210;2024-01-15T04:30:40;2.40;59.00
32139;DHT22;18644;48.700;9.210;2024-01-15T04:33:07;2.40;59.10
32139;DHT22;18644;48.700;9.210;2024-01-15T04:35:34;2.40;59.10
32139;DHT22;18644;48.700;9.210;2024-01-15T04:38:01;2.40;59.10
32139;DHT22;18644;48.700;9.210;2024-01-15T04:40:28;2.50;59.10
32139;DHT22;18644;48.700;9.210;2024-01-15T04:42:56;2.50;59.10
32139;DHT22;18644;48.700;9.210;2024-01-15T04:45:23;2.50;59.10
32139;DHT22;18644;48.700;9.210;2024-01-15T04:47:53;2.50;59.10
32139;DHT22;18644;48.700;9.210;2024-01-15T04:50:21;2.60;59.20
32139;DHT22;18644;48.700;9.210;2024-01-15T04:52:49;2.60;59.10
32139;DHT22;18644;48.700;9.210;2024-01-15T04:55:16;2.60;59.10
32139;DHT22;18644;48.700;9.210;2024-01-15T04:57:42;2.60;59.10
32139;DHT22;18644;48.700;9.210;2024-01-15T05:00:12;2.70;59.10
32139;DHT22;18644;48.700;9.210;2024-01-15T05:02:40;2.70;59.20
32139;DHT22;18644;48.700;9.210;2024-01-15T05:05:07;2.70;59.20
32139;DHT22;18644;48.700;9.210;2024-01-15T05:07:34;2.70;59.20
32139;DHT22;18644;48.700;9.210;2024-01-15T05:10:00;2.80;59.20
32139;DHT22;18644;48.700;9.210;2024-01-15T05:12:28;2.80;59.20
32139;DHT22;18644;48.700;9.210;2024-01-15T05:14:54;2.80;59.10
32139;DHT22;18644;48.700;9.210;2024-01-15T05:17:23;2.80;59.10
32139;DHT22;18644;48.700;9.210;2024-01-15T05:19:49;2.80;59.10
32139;DHT22;18644;48.700;9.210;2024-01-15T05:22:16;2.90;59.20
32139;DHT22;18644;48.700;9.210;2024-01-15T05:24:43;2.90;59.20
32139;DHT22;18644;48.700;9.210;2024-01-15T05:27:10;2.90;59.20
32139;DHT22;18644;48.700;9.210;2024-01-15T05:29:37;2.90;59.20
32139;DHT22;18644;48.700;9.210;2024-01-15T05:32:04;2.90;59.20
32139;DHT22;18644;48.700;9.210;2024-01-15T05:34:32;2.90;59.20
32139;DHT22;18644;48.700;9.210;2024-01-15T05:36:59;2.90;59.20
32139;DHT22;18644;48.700;9.210;2024-01-15T05:39:26;2.90;59.20
32139;DHT22;18644;48.700;9.210;2024-01-15T05:41:53;3.00;59.20
32139;DHT22;18644;48.700;9.210;2024-01-15T05:44:20;3.00;59.20
32139;DHT22;18644;48.700;9.210;2024-01-15T05:46:47;3.00;59.20
32139;DHT22;18644;48.700;9.210;2024-01-15T05:49:14;3.00;59.30
32139;DHT22;18644;48.700;9.210;2024-01-15T05:51:42;3.00;59.20
32139;DHT22;18644;48.700;9.210;2024-01-15T05:54:09;3.00;59.30
32139;DHT22;18644;48.700;9.210;2024-01-15T05:56:36;3.00;59.30
32139;DHT22;18644;48.700;9.210;2024-01-15T05:59:02;3.00;59.30
32139;DHT22;18644;48.700;9.210;2024-01-15T06:01:29;3.00;59.30
32139;DHT22;18644;48.700;9.210;2024-01-15T06:03:56;3.00;59.30
32139;DHT22;18644;48.700;9.210;2024-01-15T06:06:23;3.00;59.30
32139;DHT22;18644;48.700;9.210;2024-01-15T06:08:51;3.00;59.30
32139;DHT22;18644;48.700;9.210;2024-01-15T06:11:18;3.00;59.30
32139;DHT22;18644;48.700;9.210;2024-01-15T06:13:45;3.00;59.30
32139;DHT22;18644;48.700;9.210;2024-01-15T06:16:14;3.00;59.30
32139;DHT22;18644;48.700;9.210;2024-01-15T06:18:42;3.00;59.30
32139;DHT22;18644;48.700;9.210;2024-01-15T06:21:08;3.00;59.30
32139;DHT22;18644;48.700;9.210;2024-01-15T06:23:38;3.00;59.40
32139;DHT22;18644;48.700;9.210;2024-01-15T06:26:06;3.00;59.30
32139;DHT22;18644;48.700;9.210;2024-01-15T06:28:33;3.00;59.30
32139;DHT22;18644;48.700;9.210;2024-01-15T06:31:00;3.00;59.30
32139;DHT22;18644;48.700;9.210;2024-01-15T06:33:27;3.00;59.30
32139;DHT22;18644;48.700;9.210;2024-01-15T06:35:54;3.00;59.30
32139;DHT22;18644;48.700;9.210;2024-01-15T06:38:21;3.00;59.30
32139;DHT22;18644;48.700;9.210;2024-01-15T06:40:48;3.00;59.40
32139;DHT22;18644;48.700;9.210;2024-01-15T06:43:18;3.00;59.40
32139;DHT22;18644;48.700;9.210;2024-01-15T06:45:47;3.00;59.40
32139;DHT22;18644;48.700;9.210;2024-01-15T06:48:14;3.00;59.30
32139;DHT22;18644;48.700;9.210;2024-01-15T06:50:42;3.00;59.30
32139;DHT22;18644;48.700;9.210;2024-01-15T06:53:08;3.00;59.40
32139;DHT22;18644;48.700;9.210;2024-01-15T06:55:35;3.00;59.40
32139;DHT22;18644;48.700;9.210;2024-01-15T06:58:02;3.00;59.30
32139;DHT22;18644;48.700;9.210;2024-01-15T07:00:31;3.00;59.40
32139;DHT22;18644;48.700;9.210;2024-01-15T07:02:58;3.00;59.30
32139;DHT22;18644;48.700;9.210;2024-01-15T07:05:25;3.00;59.30
32139;DHT22;18644;48.700;9.210;2024-01-15T07:07:52;3.00;59.30
32139;DHT22;18644;48.700;9.210;2024-01-15T07:10:19;3.00;59.30
32139;DHT22;18644;48.700;9.210;2024-01-15T07:12:46;3.00;59.30
32139;DHT22;18644;48.700;9.210;2024-01-15T07:15:13;3.00;59.30
32139;DHT22;18644;48.700;9.210;2024-01-15T07:17:41;3.10;59.30
32139;DHT22;18644;48.700;9.210;2024-01-15T07:20:09;3.00;59.20
32139;DHT22;18644;48.700;9.210;2024-01-15T07:22:36;3.10;59.20
32139;DHT22;18644;48.700;9.210;2024-01-15T07:25:04;3.10;59.20
32139;DHT22;18644;48.700;9.210;2024-01-15T07:27:32;3.10;59.20
32139;DHT22;18644;48.700;9.210;2024-01-15T07:29:59;3.10;59.20
32139;DHT22;18644;48.700;9.210;2024-01-15T07:32:26;3.10;59.20
32139;DHT22;18644;48.700;9.210;2024-01-15T07:34:54;3.10;59.20
32139;DHT22;18644;48.700;9.210;2024-01-15T07:37:21;3.10;59.10
32139;DHT22;18644;48.700;9.210;2024-01-15T07:39:48;3.10;59.10
32139;DHT22;18644;48.700;9.210;2024-01-15T07:42:16;3.10;59.10
32139;DHT22;18644;48.700;9.210;2024-01-15T07:44:42;3.20;59.20
32139;DHT22;18644;48.700;9.210;2024-01-15T07:47:10;3.20;59.10
32139;DHT22;18644;48.700;9.210;2024-01-15T07:49:37;3.20;59.10
32139;DHT22;18644;48.700;9.210;2024-01-15T07:52:05;3.20;59.00
32139;DHT22;18644;48.700;9.210;2024-01-15T07:54:32;3.20;59.00
32139;DHT22;18644;48.700;9.210;2024-01-15T07:57:00;3.20;58.90
32139;DHT22;18644;48.700;9.210;2024-01-15T07:59:29;3.20;58.80
32139;DHT22;18644;48.700;9.210;2024-01-15T08:01:56;3.20;58.90
32139;DHT22;18644;48.700;9.210;2024-01-15T08:04:23;3.20;58.80
32139;DHT22;18644;48.700;9.210;2024-01-15T08:06:50;3.30;58.80
32139;DHT22;18644;48.700;9.210;2024-01-15T08:09:18;3.30;58.70
32139;DHT22;18644;48.700;9.210;2024-01-15T08:11:45;3.30;58.60
32139;DHT22;18644;48.700;9.210;2024-01-15T08:14:12;3.30;58.50
32139;DHT22;18644;48.700;9.210;2024-01-15T08:16:39;3.30;58.50
32139;DHT22;18644;48.700;9.210;2024-01-15T08:19:07;3.40;58.50
32139;DHT22;18644;48.700;9.210;2024-01-15T08:21:34;3.40;58.50
32139;DHT22;18644;48.700;9.210;2024-01-15T08:24:02;3.40;58.40
32139;DHT22;18644;48.700;9.210;2024-01-15T08:26:30;3.40;58.30
32139;DHT22;18644;48.700;9.210;2024-01-15T08:28:57;3.40;58.20
32139;DHT22;18644;48.700;9.210;2024-01-15T08:31:25;3.50;58.20
32139;DHT22;18644;48.700;9.210;2024-01-15T08:33:51;3.50;58.20
32139;DHT22;18644;48.700;9.210;2024-01-15T08:36:18;3.50;58.20
32139;DHT22;18644;48.700;9.210;2024-01-15T08:38:45;3.50;58.10
32139;DHT22;18644;48.700;9.210;2024-01-15T08:41:13;3.50;58.10
32139;DHT22;18644;48.700;9.210;2024-01-15T08:43:41;3.60;58.10
32139;DHT22;18644;48.700;9.210;2024-01-15T08:46:08;3.60;58.00
32139;DHT22;18644;48.700;9.210;2024-01-15T08:48:35;3.60;58.00
32139;DHT22;18644;48.700;9.210;2024-01-15T08:51:02;3.70;58.00
32139;DHT22;18644;48.700;9.210;2024-01-15T08:53:29;3.70;57.90
32139;DHT22;18644;48.700;9.210;2024-01-15T08:55:56;3.70;57.80
32139;DHT22;18644;48.700;9.210;2024-01-15T08:58:23;3.80;57.80
32139;DHT22;18644;48.700;9.210;2024-01-15T09:00:52;3.80;57.80
32139;DHT22;18644;48.700;9.210;2024-01-15T09:03:18;3.80;57.70
32139;DHT22;18644;48.700;9.210;2024-01-15T09:05:45;3.90;57.70
32139;DHT22;18644;48.700;9.210;2024-01-15T09:08:14;3.90;57.60
32139;DHT22;18644;48.700;9.210;2024-01-15T09:10:41;3.90;57.60
32139;DHT22;18644;48.700;9.210;2024-01-15T09:13:07;4.00;57.50
32139;DHT22;18644;48.700;9.210;2024-01-15T09:15:34;4.00;57.40
32139;DHT22;18644;48.700;9.210;2024-01-15T09:18:03;4.10;57.40
32139;DHT22;18644;48.700;9.210;2024-01-15T09:20:30;4.10;57.40
32139;DHT22;18644;48.700;9.210;2024-01-15T09:22:57;4.10;57.90
32139;DHT22;18644;48.700;9.210;2024-01-15T09:25:24;4.20;57.30
32139;DHT22;18644;48.700;9.210;2024-01-15T09:27:51;4.20;57.30
32139;DHT22;18644;48.700;9.210;2024-01-15T09:30:18;4.20;57.20
32139;DHT22;18644;48.700;9.210;2024-01-15T09:32:45;4.30;57.10
32139;DHT22;18644;48.700;9.210;2024-01-15T09:35:13;4.30;57.00
32139;DHT22;18644;48.700;9.210;2024-01-15T09:37:41;4.30;56.90
32139;DHT22;18644;48.700;9.210;2024-01-15T09:40:08;4.40;57.00
32139;DHT22;18644;48.700;9.210;2024-01-15T09:42:40;4.40;57.00
32139;DHT22;18644;48.700;9.210;2024-01-15T09:45:08;4.50;57.00
32139;DHT22;18644;48.700;9.210;2024-01-15T09:47:36;4.50;57.00
32139;DHT22;18644;48.700;9.210;2024-01-15T09:50:04;4.50;57.00
32139;DHT22;18644;48.700;9.210;2024-01-15T09:52:34;4.60;56.90
32139;DHT22;18644;48.700;9.210;2024-01-15T09:55:03;4.60;56.90
32139;DHT22;18644;48.700;9.210;2024-01-15T09:57:31;4.60;56.70
32139;DHT22;18644;48.700;9.210;2024-01-15T09:59:59;4.70;56.80
32139;DHT22;18644;48.700;9.210;2024-01-15T10:02:30;4.70;56.60
32139;DHT22;18644;48.700;9.210;2024-01-15T10:04:57;4.70;56.50
32139;DHT22;18644;48.700;9.210;2024-01-15T10:07:25;4.80;56.40
32139;DHT22;18644;48.700;9.210;2024-01-15T10:09:55;4.80;56.40
32139;DHT22;18644;48.700;9.210;2024-01-15T10:12:22;4.80;56.30
32139;DHT22;18644;48.700;9.210;2024-01-15T10:14:50;4.80;56.20
32139;DHT22;18644;48.700;9.210;2024-01-15T10:17:17;4.80;56.20
32139;DHT22;18644;48.700;9.210;2024-01-15T10:19:45;4.80;56.10
32139;DHT22;18644;48.700;9.210;2024-01-15T10:22:13;4.90;56.10
32139;DHT22;18644;48.700;9.210;2024-01-15T10:24:40;4.90;56.00
32139;DHT22;18644;48.700;9.210;2024-01-15T10:27:09;4.90;56.60
32139;DHT22;18644;48.700;9.210;2024-01-15T10:29:37;4.90;55.80
32139;DHT22;18644;48.700;9.210;2024-01-15T10:32:06;4.90;55.80
32139;DHT22;18644;48.700;9.210;2024-01-15T10:34:37;4.90;55.80
32139;DHT22;18644;48.700;9.210;2024-01-15T10:37:07;4.90;55.80
32139;DHT22;18644;48.700;9.210;2024-01-15T10:39:37;4.90;55.70
32139;DHT22;18644;48.700;9.210;2024-01-15T10:42:05;4.90;55.80
32139;DHT22;18644;48.700;9.210;2024-01-15T10:44:34;4.90;55.70
32139;DHT22;18644;48.700;9.210;2024-01-15T10:47:01;4.90;55.80
32139;DHT22;18644;48.700;9.210;2024-01-15T10:49:28;4.90;55.80
32139;DHT22;18644;48.700;9.210;2024-01-15T10:51:56;4.90;55.80
32139;DHT22;18644;48.700;9.210;2024-01-15T10:54:23;5.00;56.40
32139;DHT22;18644;48.700;9.210;2024-01-15T10:56:50;5.00;56.30
32139;DHT22;18644;48.700;9.210;2024-01-15T10:59:20;5.00;55.70
32139;DHT22;18644;48.700;9.210;2024-01-15T11:01:49;5.00;55.70
32139;DHT22;18644;48.700;9.210;2024-01-15T11:04:19;5.00;55.70
32139;DHT22;18644;48.700;9.210;2024-01-15T11:06:49;5.10;55.80
32139;DHT22;18644;48.700;9.210;2024-01-15T11:09:18;5.10;55.70
32139;DHT22;18644;48.700;9.210;2024-01-15T11:11:47;5.10;55.70
32139;DHT22;18644;48.700;9.210;2024-01-15T11:14:33;5.10;55.60
32139;DHT22;18644;48.700;9.210;2024-01-15T11:17:02;5.10;55.60
32139;DHT22;18644;48.700;9.210;2024-01-15T11:19:36;5.10;55.70
32139;DHT22;18644;48.700;9.210;2024-01-15T11:22:06;5.10;55.60
32139;DHT22;18644;48.700;9.210;2024-01-15T11:24:36;5.10;55.70
32139;DHT22;18644;48.700;9.210;2024-01-15T11:27:04;5.10;55.80
32139;DHT22;18644;48.700;9.210;2024-01-15T11:29:32;5.10;55.90
32139;DHT22;18644;48.700;9.210;2024-01-15T11:32:03;5.10;56.00
32139;DHT22;18644;48.700;9.210;2024-01-15T11:34:53;5.10;56.00
32139;DHT22;18644;48.700;9.210;2024-01-15T11:37:25;5.10;56.00
32139;DHT22;18644;48.700;9.210;2024-01-15T11:39:53;5.10;56.00
32139;DHT22;18644;48.700;9.210;2024-01-15T11:42:21;5.20;56.10
32139;DHT22;18644;48.700;9.210;2024-01-15T11:44:49;5.20;56.00
32139;DHT22;18644;48.700;9.210;2024-01-15T11:47:53;5.20;56.00
32139;DHT22;18644;48.700;9.210;2024-01-15T11:50:30;5.20;56.10
32139;DHT22;18644;48.700;9.210;2024-01-15T11:53:00;5.20;56.20
32139;DHT22;18644;48.700;9.210;2024-01-15T11:55:32;5.20;56.20
32139;DHT22;18644;48.700;9.210;2024-01-15T11:58:02;5.20;56.10
32139;DHT22;18644;48.700;9.210;2024-01-15T12:00:33;5.20;56.20
32139;DHT22;18644;48.700;9.210;2024-01-15T12:03:02;5.20;56.20
32139;DHT22;18644;48.700;9.210;2024-01-15T12:05:31;5.20;56.20
32139;DHT22;18644;48.700;9.210;2024-01-15T12:07:58;5.10;56.20
32139;DHT22;18644;48.700;9.210;2024-01-15T12:10:25;5.20;56.40
32139;DHT22;18644;48.700;9.210;2024-01-15T12:12:58;5.20;56.40
32139;DHT22;18644;48.700;9.210;2024-01-15T12:15:27;5.10;56.50
32139;DHT22;18644;48.700;9.210;2024-01-15T12:17:55;5.10;56.60
32139;DHT22;18644;48.700;9.210;2024-01-15T12:20:25;5.10;56.90
32139;DHT22;18644;48.700;9.210;2024-01-15T12:22:52;5.00;57.10
32139;DHT22;18644;48.700;9.210;2024-01-15T12:25:20;5.00;57.20
32139;DHT22;18644;48.700;9.210;2024-01-15T12:27:48;5.00;57.40
32139;DHT22;18644;48.700;9.210;2024-01-15T12:30:15;5.00;57.70
32139;DHT22;18644;48.700;9.210;2024-01-15T12:32:42;4.90;57.70
32139;DHT22;18644;48.700;9.210;2024-01-15T12:35:10;4.90;57.70
32139;DHT22;18644;48.700;9.210;2024-01-15T12:37:39;4.90;57.90
32139;DHT22;18644;48.700;9.210;2024-01-15T12:40:08;4.90;58.00
32139;DHT22;18644;48.700;9.210;2024-01-15T12:42:36;4.80;58.10
32139;DHT22;18644;48.700;9.210;2024-01-15T12:45:04;4.80;58.30
32139;DHT22;18644;48.700;9.210;2024-01-15T12:47:33;4.80;58.20
32139;DHT22;18644;48.700;9.210;2024-01-15T12:50:02;4.70;58.20
32139;DHT22;18644;48.700;9.210;2024-01-15T12:52:29;4.70;58.50
32139;DHT22;18644;48.700;9.210;2024-01-15T12:54:58;4.70;58.70
32139;DHT22;18644;48.700;9.210;2024-01-15T12:57:25;4.70;58.80
32139;DHT22;18644;48.700;9.210;2024-01-15T12:59:54;4.60;59.00
32139;DHT22;18644;48.700;9.210;2024-01-15T13:02:22;4.60;59.20
32139;DHT22;18644;48.700;9.210;2024-01-15T13:04:49;4.60;59.40
32139;DHT22;18644;48.700;9.210;2024-01-15T13:07:16;4.60;59.50
32139;DHT22;18644;48.700;9.210;2024-01-15T13:09:43;4.60;59.70
32139;DHT22;18644;48.700;9.210;2024-01-15T13:12:11;4.60;59.70
32139;DHT22;18644;48.700;9.210;2024-01-15T13:14:38;4.60;59.70
32139;DHT22;18644;48.700;9.210;2024-01-15T13:17:06;4.60;59.80
32139;DHT22;18644;48.700;9.210;2024-01-15T13:19:33;4.60;59.80
32139;DHT22;18644;48.700;9.210;2024-01-15T13:22:00;4.60;59.90
32139;DHT22;18644;48.700;9.210;2024-01-15T13:24:29;4.60;59.90
32139;DHT22;18644;48.700;9.210;2024-01-15T13:26:56;4.60;60.00
32139;DHT22;18644;48.700;9.210;2024-01-15T13:29:24;4.60;59.90
32139;DHT22;18644;48.700;9.210;2024-01-15T13:31:51;4.60;59.90
32139;DHT22;18644;48.700;9.210;2024-01-15T13:34:18;4.50;59.90
32139;DHT22;18644;48.700;9.210;2024-01-15T13:36:44;4.50;60.00
32139;DHT22;18644;48.700;9.210;2024-01-15T13:39:11;4.50;60.10
32139;DHT22;18644;48.700;9.210;2024-01-15T13:41:38;4.50;60.20
32139;DHT22;18644;48.700;9.210;2024-01-15T13:44:05;4.50;60.30
32139;DHT22;18644;48.700;9.210;2024-01-15T13:46:34;4.50;60.30
32139;DHT22;18644;48.700;9.210;2024-01-15T13:49:01;4.50;60.30
32139;DHT22;18644;48.700;9.210;2024-01-15T13:51:30;4.50;60.40
32139;DHT22;18644;48.700;9.210;2024-01-15T13:53:57;4.50;60.50
32139;DHT22;18644;48.700;9.210;2024-01-15T13:56:23;4.40;60.40
32139;DHT22;18644;48.700;9.210;2024-01-15T13:58:50;4.40;60.70
32139;DHT22;18644;48.700;9.210;2024-01-15T14:01:18;4.40;60.80
32139;DHT22;18644;48.700;9.210;2024-01-15T14:03:46;4.40;60.90
32139;DHT22;18644;48.700;9.210;2024-01-15T14:06:13;4.40;60.90
32139;DHT22;18644;48.700;9.210;2024-01-15T14:08:40;4.40;61.00
32139;DHT22;18644;48.700;9.210;2024-01-15T14:11:07;4.40;61.00
32139;DHT22;18644;48.700;9.210;2024-01-15T14:13:35;4.30;61.00
32139;DHT22;18644;48.700;9.210;2024-01-15T14:16:02;4.40;61.10
32139;DHT22;18644;48.700;9.210;2024-01-15T14:18:30;4.30;61.10
32139;DHT22;18644;48.700;9.210;2024-01-15T14:20:59;4.30;61.20
32139;DHT22;18644;48.700;9.210;2024-01-15T14:23:26;4.30;61.40
32139;DHT22;18644;48.700;9.210;2024-01-15T14:25:53;4.30;61.40
32139;DHT22;18644;48.700;9.210;2024-01-15T14:28:20;4.30;61.50
32139;DHT22;18644;48.700;9.210;2024-01-15T14:30:46;4.30;61.50
32139;DHT22;18644;48.700;9.210;2024-01-15T14:33:13;4.30;61.60
32139;DHT22;18644;48.700;9.210;2024-01-15T14:35:40;4.30;61.70
32139;DHT22;18644;48.700;9.210;2024-01-15T14:38:09;4.30;61.90
32139;DHT22;18644;48.700;9.210;2024-01-15T14:40:36;4.30;62.10
32139;DHT22;18644;48.700;9.210;2024-01-15T14:43:03;4.30;62.20
32139;DHT22;18644;48.700;9.210;2024-01-15T14:45:31;4.30;62.20
32139;DHT22;18644;48.700;9.210;2024-01-15T14:47:58;4.30;62.20
32139;DHT22;18644;48.700;9.210;2024-01-15T14:50:25;4.30;62.00
32139;DHT22;18644;48.700;9.210;2024-01-15T14:52:52;4.30;62.00
32139;DHT22;18644;48.700;9.210;2024-01-15T14:55:24;4.30;62.00
32139;DHT22;18644;48.700;9.210;2024-01-15T14:57:51;4.30;61.90
32139;DHT22;18644;48.700;9.210;2024-01-15T15:00:19;4.20;61.60
32139;DHT22;18644;48.700;9.210;2024-01-15T15:02:46;4.20;61.50
32139;DHT22;18644;48.700;9.210;2024-01-15T15:05:14;4.20;61.40
32139;DHT22;18644;48.700;9.210;2024-01-15T15:07:42;4.20;61.50
32139;DHT22;18644;48.700;9.210;2024-01-15T15:10:10;4.20;61.50
32139;DHT22;18644;48.700;9.210;2024-01-15T15:12:39;4.10;61.40
32139;DHT22;18644;48.700;9.210;2024-01-15T15:15:07;4.10;61.50
32139;DHT22;18644;48.700;9.210;2024-01-15T15:17:36;4.10;61.50
32139;DHT22;18644;48.700;9.210;2024-01-15T15:20:04;4.10;61.50
32139;DHT22;18644;48.700;9.210;2024-01-15T15:22:32;4.10;61.40
32139;DHT22;18644;48.700;9.210;2024-01-15T15:25:00;4.10;61.30
32139;DHT22;18644;48.700;9.210;2024-01-15T15:27:27;4.10;61.30
32139;DHT22;18644;48.700;9.210;2024-01-15T15:29:57;4.10;61.40
32139;DHT22;18644;48.700;9.210;2024-01-15T15:32:24;4.10;61.40
32139;DHT22;18644;48.700;9.210;2024-01-15T15:34:51;4.10;61.40
32139;DHT22;18644;48.700;9.210;2024-01-15T15:37:18;4.10;61.50
32139;DHT22;18644;48.700;9.210;2024-01-15T15:39:45;4.10;61.50
32139;DHT22;18644;48.700;9.210;2024-01-15T15:42:12;4.10;61.40
32139;DHT22;18644;48.700;9.210;2024-01-15T15:44:40;4.00;61.30
32139;DHT22;18644;48.700;9.210;2024-01-15T15:47:13;4.00;61.10
32139;DHT22;18644;48.700;9.210;2024-01-15T15:49:40;4.00;61.00